createdAt,value
2022-10-13T00:00:51.438Z,73.60
2022-10-13T00:03:56.251Z,73.70
2022-10-13T00:07:01.813Z,73.70
2022-10-13T00:10:05.970Z,73.80
2022-10-13T00:13:10.712Z,73.80
2022-10-13T00:16:16.528Z,73.80
2022-10-13T00:19:20.139Z,73.80
2022-10-13T00:22:25.699Z,73.80
2022-10-13T00:25:29.391Z,73.80
2022-10-13T00:28:33.442Z,73.80
2022-10-13T00:31:37.111Z,73.80
2022-10-13T00:34:41.606Z,73.90
2022-10-13T00:37:47.104Z,74.00
2022-10-13T00:40:53.153Z,74.10
2022-10-13T00:43:59.450Z,74.10
2022-10-13T00:47:03.082Z,74.20
2022-10-13T00:50:11.774Z,74.20
2022-10-13T00:53:19.534Z,74.30
2022-10-13T00:56:24.932Z,74.40
2022-10-13T00:59:30.086Z,74.40
2022-10-13T01:02:38.082Z,74.50
2022-10-13T01:05:44.158Z,74.50
2022-10-13T01:08:49.964Z,74.50
2022-10-13T01:12:04.158Z,74.60
2022-10-13T01:15:13.339Z,74.80
2022-10-13T01:18:28.017Z,74.80
2022-10-13T01:21:34.953Z,74.80
2022-10-13T01:24:48.146Z,74.80
2022-10-13T01:28:15.615Z,75.00
2022-10-13T01:31:25.650Z,75.00
2022-10-13T01:34:35.055Z,74.90
2022-10-13T01:37:45.765Z,75.00
2022-10-13T01:40:57.677Z,75.10
2022-10-13T01:44:07.764Z,75.10
2022-10-13T01:47:16.837Z,75.20
2022-10-13T01:50:22.143Z,75.20
2022-10-13T01:53:27.001Z,75.20
2022-10-13T01:56:30.674Z,75.30
2022-10-13T01:59:37.917Z,75.30
2022-10-13T02:02:50.533Z,75.30
2022-10-13T02:06:03.782Z,75.30
2022-10-13T02:09:21.273Z,75.40
2022-10-13T02:12:31.011Z,75.40
2022-10-13T02:15:39.558Z,75.50
2022-10-13T02:18:47.733Z,75.50
2022-10-13T02:21:52.939Z,75.50
2022-10-13T02:24:56.933Z,75.50
2022-10-13T02:28:00.984Z,75.60
2022-10-13T02:31:09.946Z,75.50
2022-10-13T02:34:16.173Z,75.40
2022-10-13T02:37:24.881Z,75.50
2022-10-13T02:40:29.199Z,75.50
2022-10-13T02:43:33.261Z,75.60
2022-10-13T02:46:36.873Z,75.70
2022-10-13T02:49:42.415Z,75.70
2022-10-13T02:52:46.090Z,75.50
2022-10-13T02:55:49.810Z,75.60
2022-10-13T02:58:53.445Z,75.60
2022-10-13T03:01:57.141Z,75.70
2022-10-13T03:05:04.512Z,75.80
2022-10-13T03:08:08.326Z,75.80
2022-10-13T03:11:12.213Z,75.90
2022-10-13T03:14:15.865Z,75.90
2022-10-13T03:17:19.593Z,75.90
2022-10-13T03:20:25.127Z,75.90
2022-10-13T03:23:29.300Z,76.00
2022-10-13T03:26:33.251Z,76.00
2022-10-13T03:29:36.901Z,76.00
2022-10-13T03:32:40.970Z,76.10
2022-10-13T03:35:46.258Z,76.10
2022-10-13T03:38:49.954Z,76.10
2022-10-13T03:41:53.552Z,75.90
2022-10-13T03:44:57.194Z,76.00
2022-10-13T03:48:00.890Z,76.00
2022-10-13T03:51:08.383Z,76.10
2022-10-13T03:54:13.224Z,76.10
2022-10-13T03:57:16.967Z,76.20
2022-10-13T04:00:20.701Z,76.30
2022-10-13T04:03:24.362Z,76.90
2022-10-13T04:06:30.741Z,76.30
2022-10-13T04:09:34.400Z,76.40
2022-10-13T04:12:38.137Z,76.40
2022-10-13T04:15:42.495Z,76.40
2022-10-13T04:18:47.127Z,76.50
2022-10-13T04:21:52.941Z,76.50
2022-10-13T04:24:56.618Z,76.50
2022-10-13T04:28:01.031Z,76.50
2022-10-13T04:31:05.009Z,76.70
2022-10-13T04:34:10.617Z,76.60
2022-10-13T04:37:16.264Z,76.60
2022-10-13T04:40:20.093Z,76.60
2022-10-13T04:43:23.757Z,76.60
2022-10-13T04:46:28.522Z,76.70
2022-10-13T04:49:33.521Z,76.70
2022-10-13T04:52:39.064Z,76.80
2022-10-13T04:55:42.757Z,76.80
2022-10-13T04:58:47.578Z,76.90
2022-10-13T05:01:51.187Z,76.90
2022-10-13T05:04:54.777Z,76.90
2022-10-13T05:08:00.970Z,77.00
2022-10-13T05:11:04.689Z,77.00
2022-10-13T05:14:08.341Z,77.00
2022-10-13T05:17:12.137Z,77.00
2022-10-13T05:20:17.067Z,77.00
2022-10-13T05:23:22.561Z,77.10
2022-10-13T05:26:29.398Z,77.10
2022-10-13T05:29:33.040Z,77.10
2022-10-13T05:32:37.181Z,77.20
2022-10-13T05:35:40.860Z,77.20
2022-10-13T05:38:47.968Z,77.20
2022-10-13T05:41:51.792Z,77.30
2022-10-13T05:44:58.601Z,77.30
2022-10-13T05:48:02.223Z,77.30
2022-10-13T05:51:08.959Z,77.30
2022-10-13T05:54:17.732Z,77.40
2022-10-13T05:57:24.649Z,77.50
2022-10-13T06:00:28.282Z,77.40
2022-10-13T06:03:31.999Z,77.50
2022-10-13T06:06:35.897Z,77.60
2022-10-13T06:09:42.684Z,77.60
2022-10-13T06:12:46.417Z,77.60
2022-10-13T06:15:50.063Z,77.60
2022-10-13T06:18:53.685Z,77.60
2022-10-13T06:22:02.572Z,77.70
2022-10-13T06:25:10.632Z,77.60
2022-10-13T06:28:14.319Z,77.70
2022-10-13T06:31:17.990Z,77.80
2022-10-13T06:34:21.730Z,77.70
2022-10-13T06:37:27.444Z,77.80
2022-10-13T06:40:33.446Z,77.80
2022-10-13T06:43:40.357Z,77.90
2022-10-13T06:46:46.964Z,77.90
2022-10-13T06:49:50.646Z,78.00
2022-10-13T06:52:57.438Z,78.00
2022-10-13T06:56:06.056Z,78.70
2022-10-13T06:59:09.682Z,78.10
2022-10-13T07:02:14.520Z,78.10
2022-10-13T07:05:18.285Z,78.20
2022-10-13T07:08:24.458Z,78.20
2022-10-13T07:11:30.094Z,78.20
2022-10-13T07:14:38.224Z,78.30
2022-10-13T07:17:44.130Z,78.40
2022-10-13T07:20:47.758Z,78.40
2022-10-13T07:23:51.420Z,78.70
2022-10-13T07:26:57.017Z,78.50
2022-10-13T07:30:00.608Z,78.50
2022-10-13T07:33:04.378Z,78.50
2022-10-13T07:36:09.011Z,78.60
2022-10-13T07:39:12.705Z,78.60
2022-10-13T07:42:18.328Z,78.60
2022-10-13T07:45:22.073Z,78.70
2022-10-13T07:48:25.958Z,78.70
2022-10-13T07:51:31.446Z,78.70
2022-10-13T07:54:35.096Z,78.80
2022-10-13T07:57:40.688Z,78.80
2022-10-13T08:00:44.327Z,78.80
2022-10-13T08:03:50.624Z,78.80
2022-10-13T08:06:55.342Z,78.90
2022-10-13T08:09:58.999Z,78.90
2022-10-13T08:13:04.575Z,78.90
2022-10-13T08:16:08.711Z,79.00
2022-10-13T08:19:12.520Z,79.10
2022-10-13T08:22:16.423Z,79.00
2022-10-13T08:25:20.058Z,79.10
2022-10-13T08:28:27.895Z,79.10
2022-10-13T08:31:32.071Z,79.10
2022-10-13T08:34:36.263Z,79.10
2022-10-13T08:37:39.673Z,79.00
2022-10-13T08:40:48.371Z,79.00
2022-10-13T08:44:40.940Z,78.80
2022-10-13T08:47:31.462Z,79.00
2022-10-13T08:50:38.013Z,79.10
2022-10-13T08:53:44.210Z,79.10
2022-10-13T08:56:50.367Z,79.00
2022-10-13T08:59:56.350Z,79.00
2022-10-13T09:03:09.014Z,79.00
2022-10-13T09:06:16.805Z,79.10
2022-10-13T09:09:20.657Z,79.00
2022-10-13T09:12:28.834Z,79.60
2022-10-13T09:15:44.917Z,79.00
2022-10-13T09:18:49.006Z,79.00
2022-10-13T09:21:55.146Z,78.90
2022-10-13T09:25:21.796Z,78.90
2022-10-13T09:28:28.222Z,79.00
2022-10-13T09:31:34.893Z,78.80
2022-10-13T09:34:38.662Z,78.80
2022-10-13T09:37:42.594Z,78.90
2022-10-13T09:40:57.470Z,78.90
2022-10-13T09:44:07.422Z,79.00
2022-10-13T09:47:20.001Z,79.00
2022-10-13T09:50:27.145Z,79.20
2022-10-13T09:53:35.023Z,79.10
2022-10-13T09:56:45.129Z,79.20
2022-10-13T09:59:51.496Z,79.30
2022-10-13T10:03:03.399Z,79.30
2022-10-13T10:09:38.549Z,79.40
2022-10-13T10:12:45.360Z,79.40
2022-10-13T10:15:57.106Z,79.50
2022-10-13T10:19:11.914Z,79.60
2022-10-13T10:22:25.355Z,79.60
2022-10-13T10:25:35.071Z,79.60
2022-10-13T10:29:06.392Z,79.60
2022-10-13T10:32:28.088Z,79.70
2022-10-13T10:35:43.789Z,79.80
2022-10-13T10:38:53.119Z,79.70
2022-10-13T10:42:04.496Z,79.70
2022-10-13T10:45:17.539Z,79.80
2022-10-13T10:48:24.526Z,79.80
2022-10-13T10:51:36.748Z,79.80
2022-10-13T10:54:49.515Z,79.90
2022-10-13T10:58:01.146Z,79.90
2022-10-13T11:01:09.265Z,80.00
2022-10-13T11:04:41.986Z,80.00
2022-10-13T11:08:01.285Z,80.30
2022-10-13T11:11:37.410Z,80.30
2022-10-13T11:14:47.284Z,80.40
2022-10-13T11:17:51.598Z,80.40
2022-10-13T11:21:00.571Z,80.20
2022-10-13T11:24:26.505Z,80.30
2022-10-13T11:27:42.464Z,80.30
2022-10-13T11:30:49.664Z,80.40
2022-10-13T11:33:59.494Z,80.20
2022-10-13T11:37:04.626Z,80.20
2022-10-13T11:40:20.961Z,80.20
2022-10-13T11:43:43.544Z,80.30
2022-10-13T11:47:02.109Z,80.30
2022-10-13T11:50:14.781Z,80.20
2022-10-13T11:53:20.715Z,80.00
2022-10-13T11:56:39.549Z,80.00
2022-10-13T11:59:48.236Z,80.00
2022-10-13T12:02:54.071Z,79.90
2022-10-13T12:06:02.814Z,79.80
2022-10-13T12:09:16.791Z,79.70
2022-10-13T12:12:24.289Z,79.70
2022-10-13T12:15:35.181Z,79.50
2022-10-13T12:18:40.538Z,79.40
2022-10-13T12:21:51.456Z,79.40
2022-10-13T12:24:59.885Z,79.30
2022-10-13T12:28:05.606Z,79.20
2022-10-13T12:31:19.975Z,79.20
2022-10-13T12:34:27.532Z,79.20
2022-10-13T12:37:36.101Z,79.10
2022-10-13T12:40:40.669Z,79.10
2022-10-13T12:43:46.928Z,79.00
2022-10-13T12:46:54.921Z,79.00
2022-10-13T12:50:23.033Z,79.00
2022-10-13T12:53:30.107Z,79.00
2022-10-13T12:56:35.054Z,78.90
2022-10-13T12:59:44.410Z,79.00
2022-10-13T13:02:52.950Z,79.10
2022-10-13T13:06:23.668Z,79.10
2022-10-13T13:09:29.110Z,79.10
2022-10-13T13:12:32.759Z,79.10
2022-10-13T13:15:40.693Z,79.10
2022-10-13T13:18:47.598Z,79.10
2022-10-13T13:24:54.994Z,79.20
2022-10-13T13:27:58.724Z,79.10
2022-10-13T13:31:04.292Z,79.80
2022-10-13T13:34:08.005Z,79.20
2022-10-13T13:37:15.914Z,79.20
2022-10-13T13:40:22.197Z,79.20
2022-10-13T13:43:25.827Z,79.30
2022-10-13T13:46:31.785Z,79.30
2022-10-13T13:49:35.401Z,79.30
2022-10-13T13:52:39.014Z,79.40
2022-10-13T13:55:44.082Z,79.40
2022-10-13T13:58:48.371Z,79.40
2022-10-13T14:01:53.781Z,79.50
2022-10-13T14:04:58.843Z,79.50
2022-10-13T14:08:04.191Z,79.40
2022-10-13T14:11:08.051Z,79.50
2022-10-13T14:14:11.706Z,79.60
2022-10-13T14:17:17.286Z,79.60
2022-10-13T14:20:21.281Z,79.70
2022-10-13T14:23:24.713Z,79.70
2022-10-13T14:26:28.458Z,80.40
2022-10-13T14:29:32.110Z,79.60
2022-10-13T14:32:38.180Z,79.70
2022-10-13T14:35:41.777Z,79.80
2022-10-13T14:38:46.750Z,79.80
2022-10-13T14:41:50.329Z,79.90
2022-10-13T14:44:53.978Z,79.90
2022-10-13T14:47:59.543Z,79.90
2022-10-13T14:51:06.242Z,79.90
2022-10-13T14:54:10.165Z,80.00
2022-10-13T14:57:15.193Z,80.00
2022-10-13T15:00:19.153Z,80.60
2022-10-13T15:03:27.138Z,79.80
2022-10-13T15:06:31.046Z,79.90
2022-10-13T15:09:52.091Z,79.80
2022-10-13T15:12:58.350Z,79.90
2022-10-13T15:16:04.125Z,80.00
2022-10-13T15:19:09.730Z,80.00
2022-10-13T15:22:13.406Z,80.00
2022-10-13T15:25:17.299Z,80.10
2022-10-13T15:28:20.855Z,80.10
2022-10-13T15:31:25.064Z,80.10
2022-10-13T15:34:30.774Z,80.00
2022-10-13T15:37:34.406Z,80.10
2022-10-13T15:40:41.247Z,80.10
2022-10-13T15:43:45.139Z,80.20
2022-10-13T15:47:06.764Z,80.20
2022-10-13T15:50:14.434Z,80.30
2022-10-13T15:53:18.128Z,80.40
2022-10-13T15:56:21.741Z,80.50
2022-10-13T15:59:25.944Z,80.40
2022-10-13T16:02:29.534Z,80.40
2022-10-13T16:05:35.272Z,80.50
2022-10-13T16:08:39.218Z,80.60
2022-10-13T16:11:42.641Z,80.60
2022-10-13T16:14:46.222Z,80.60
2022-10-13T16:17:52.672Z,80.40
2022-10-13T16:20:58.646Z,80.50
2022-10-13T16:24:02.285Z,80.50
2022-10-13T16:27:06.522Z,80.60
2022-10-13T16:30:11.431Z,80.70
2022-10-13T16:33:15.047Z,80.80
2022-10-13T16:36:22.165Z,80.80
2022-10-13T16:39:27.910Z,80.80
2022-10-13T16:42:31.341Z,80.80
2022-10-13T16:45:55.086Z,80.80
2022-10-13T16:48:58.614Z,80.70
2022-10-13T16:52:04.132Z,80.80
2022-10-13T16:55:09.715Z,80.80
2022-10-13T16:58:13.400Z,80.90
2022-10-13T17:01:17.273Z,80.90
2022-10-13T17:04:22.283Z,81.00
2022-10-13T17:07:27.978Z,81.00
2022-10-13T17:10:31.618Z,81.10
2022-10-13T17:13:38.269Z,81.10
2022-10-13T17:16:43.515Z,81.20
2022-10-13T17:19:47.134Z,81.20
2022-10-13T17:22:52.696Z,81.30
2022-10-13T17:25:57.527Z,81.40
2022-10-13T17:29:01.353Z,81.30
2022-10-13T17:32:05.046Z,81.40
2022-10-13T17:35:13.669Z,81.40
2022-10-13T17:38:19.237Z,81.50
2022-10-13T17:41:24.105Z,81.40
2022-10-13T17:44:27.845Z,81.50
2022-10-13T17:47:31.454Z,81.50
2022-10-13T17:50:36.169Z,82.10
2022-10-13T17:53:42.928Z,81.60
2022-10-13T17:56:49.501Z,81.60
2022-10-13T17:59:53.127Z,81.60
2022-10-13T18:02:57.003Z,81.70
2022-10-13T18:06:00.654Z,81.70
2022-10-13T18:09:08.535Z,81.70
2022-10-13T18:12:12.340Z,81.70
2022-10-13T18:15:16.183Z,81.70
2022-10-13T18:18:19.844Z,81.70
2022-10-13T18:21:26.113Z,81.70
2022-10-13T18:24:31.748Z,81.70
2022-10-13T18:27:35.406Z,81.70
2022-10-13T18:30:39.054Z,81.80
2022-10-13T18:33:43.689Z,81.80
2022-10-13T18:36:49.742Z,81.80
2022-10-13T18:39:55.303Z,81.80
2022-10-13T18:42:58.895Z,81.80
2022-10-13T18:46:03.591Z,81.80
2022-10-13T18:49:09.338Z,81.90
2022-10-13T18:52:15.542Z,81.90
2022-10-13T18:55:21.139Z,81.90
2022-10-13T18:58:24.846Z,82.00
2022-10-13T19:01:30.033Z,82.10
2022-10-13T19:04:33.837Z,82.60
2022-10-13T19:07:39.180Z,82.10
2022-10-13T19:10:44.843Z,82.10
2022-10-13T19:13:49.403Z,82.20
2022-10-13T19:16:53.030Z,82.50
2022-10-13T19:19:59.122Z,82.30
2022-10-13T19:23:02.718Z,82.30
2022-10-13T19:26:14.942Z,82.40
2022-10-13T19:29:18.956Z,82.40
2022-10-13T19:32:23.233Z,82.40
2022-10-13T19:35:26.991Z,82.50
2022-10-13T19:38:30.625Z,82.50
2022-10-13T19:41:36.555Z,83.10
2022-10-13T19:44:40.933Z,82.50
2022-10-13T19:47:44.521Z,82.50
2022-10-13T19:50:48.149Z,82.60
2022-10-13T19:53:51.873Z,82.60
2022-10-13T19:56:57.418Z,82.50
2022-10-13T20:00:01.058Z,82.40
2022-10-13T20:03:05.499Z,82.50
2022-10-13T20:06:10.270Z,82.50
2022-10-13T20:09:15.365Z,82.50
2022-10-13T20:12:20.963Z,82.50
2022-10-13T20:15:24.693Z,82.60
2022-10-13T20:18:30.968Z,82.60
2022-10-13T20:21:34.642Z,82.60
2022-10-13T20:24:38.315Z,82.60
2022-10-13T20:27:43.892Z,82.70
2022-10-13T20:30:48.075Z,82.70
2022-10-13T20:33:55.321Z,82.70
2022-10-13T20:36:59.442Z,82.80
2022-10-13T20:40:06.109Z,82.80
2022-10-13T20:43:13.251Z,82.80
2022-10-13T20:46:19.314Z,82.80
2022-10-13T20:49:22.902Z,82.90
2022-10-13T20:52:26.571Z,82.90
2022-10-13T20:55:30.398Z,82.90
2022-10-13T20:58:37.849Z,82.90
2022-10-13T21:01:41.703Z,82.90
2022-10-13T21:04:45.364Z,82.90
2022-10-13T21:07:48.988Z,83.00
2022-10-13T21:10:53.029Z,83.00
2022-10-13T21:14:02.357Z,83.00
2022-10-13T21:17:06.710Z,83.00
2022-10-13T21:20:11.878Z,83.00
2022-10-13T21:23:15.578Z,83.10
2022-10-13T21:26:21.904Z,83.00
2022-10-13T21:29:28.180Z,83.00
2022-10-13T21:32:32.010Z,83.10
2022-10-13T21:35:37.427Z,83.10
2022-10-13T21:38:41.128Z,83.10
2022-10-13T21:41:44.860Z,83.10
2022-10-13T21:44:51.513Z,83.10
2022-10-13T21:47:55.471Z,83.10
2022-10-13T21:50:59.086Z,83.10
2022-10-13T21:54:05.266Z,83.10
2022-10-13T21:57:08.949Z,83.20
2022-10-13T22:00:15.516Z,83.10
2022-10-13T22:03:19.122Z,83.20
2022-10-13T22:06:23.133Z,83.20
2022-10-13T22:09:26.528Z,83.30
2022-10-13T22:12:35.111Z,83.20
2022-10-13T22:15:41.190Z,83.10
2022-10-13T22:18:45.930Z,83.20
2022-10-13T22:21:50.725Z,83.20
2022-10-13T22:24:54.393Z,83.30
2022-10-13T22:27:57.981Z,83.30
2022-10-13T22:31:07.533Z,83.40
2022-10-13T22:34:12.319Z,83.40
2022-10-13T22:37:15.915Z,83.40
2022-10-13T22:40:19.519Z,83.40
2022-10-13T22:43:23.150Z,83.50
2022-10-13T22:46:31.518Z,83.50
2022-10-13T22:49:35.124Z,83.50
2022-10-13T22:52:40.106Z,83.50
2022-10-13T22:55:43.905Z,83.60
2022-10-13T22:58:51.174Z,83.60
2022-10-13T23:01:56.690Z,83.60
2022-10-13T23:05:00.514Z,83.60
2022-10-13T23:08:05.401Z,83.70
2022-10-13T23:11:09.282Z,83.80
2022-10-13T23:14:12.913Z,83.80
2022-10-13T23:17:18.735Z,83.80
2022-10-13T23:20:22.611Z,83.80
2022-10-13T23:23:26.267Z,83.80
2022-10-13T23:26:30.827Z,83.90
2022-10-13T23:29:34.418Z,83.80
2022-10-13T23:32:39.969Z,83.90
2022-10-13T23:35:43.625Z,83.90
2022-10-13T23:38:47.605Z,83.90
2022-10-13T23:41:51.320Z,83.90
2022-10-13T23:44:56.100Z,83.90
2022-10-13T23:48:01.597Z,84.00
2022-10-13T23:51:10.176Z,84.00
2022-10-13T23:54:13.782Z,84.00
2022-10-13T23:57:17.402Z,84.10
